Time;durP1;ratioP1;P1;durP2;ratioP2;P2;SDS_P1;SDS_P2;PMS_P1;PMS_P2;Temp;Humidity;BMP_temperature;BMP_pressure;BME280_temperature;BME280_humidity;BME280_pressure;Samples;Min_cycle;Max_cycle;Signal;HPM_P1;HPM_P2
2022/05/20 00:00:58;;;;;;;0.32;0.20;;;13.70;99.90;;;;;;5051456;28;20063;-70
2022/05/20 00:03:24;;;;;;;0.55;0.20;;;13.70;99.90;;;;;;5053265;28;20386;-70
2022/05/20 00:05:50;;;;;;;0.88;0.30;;;13.70;99.90;;;;;;5050223;28;20654;-70
2022/05/20 00:08:16;;;;;;;0.20;0.20;;;13.70;99.90;;;;;;5051783;28;20371;-69
2022/05/20 00:10:42;;;;;;;0.32;0.20;;;13.70;99.90;;;;;;5049778;28;20037;-70
2022/05/20 00:13:09;;;;;;;0.45;0.20;;;13.70;99.90;;;;;;5053242;28;20081;-69
2022/05/20 00:15:36;;;;;;;0.68;0.30;;;13.70;99.90;;;;;;5050637;28;20119;-69
2022/05/20 00:18:02;;;;;;;0.57;0.40;;;13.70;99.90;;;;;;5053407;28;20036;-70
2022/05/20 00:20:29;;;;;;;0.95;0.30;;;13.70;99.90;;;;;;5054455;28;20117;-70
2022/05/20 00:22:55;;;;;;;0.20;0.20;;;13.70;99.90;;;;;;5051900;28;20021;-70
2022/05/20 00:28:07;;;;;;;0.20;0.20;;;13.70;99.90;;;;;;5054747;28;20043;-69
2022/05/20 00:30:34;;;;;;;0.28;0.20;;;13.70;99.90;;;;;;5059764;28;20045;-70
2022/05/20 00:33:00;;;;;;;0.32;0.20;;;13.70;99.90;;;;;;5052542;28;20025;-69
2022/05/20 00:35:26;;;;;;;0.20;0.20;;;13.80;99.90;;;;;;5082608;28;20051;-69
2022/05/20 00:37:52;;;;;;;0.25;0.20;;;13.80;99.90;;;;;;5051848;28;20383;-69
2022/05/20 00:40:21;;;;;;;0.60;0.22;;;13.70;99.90;;;;;;5053215;28;20092;-70
2022/05/20 00:42:48;;;;;;;0.57;0.20;;;13.80;99.90;;;;;;5082000;28;20048;-69
2022/05/20 00:45:15;;;;;;;0.60;0.22;;;13.70;99.90;;;;;;5047053;28;20033;-69
2022/05/20 00:47:42;;;;;;;0.55;0.22;;;13.70;99.90;;;;;;5059634;28;20060;-70
2022/05/20 00:50:14;;;;;;;0.32;0.20;;;13.70;99.90;;;;;;5054157;28;20025;-70
2022/05/20 00:52:44;;;;;;;0.28;0.20;;;13.70;99.90;;;;;;5046931;28;20029;-69
2022/05/20 00:55:16;;;;;;;0.57;0.25;;;13.80;99.90;;;;;;5068373;28;20151;-70
2022/05/20 00:57:52;;;;;;;0.60;0.30;;;13.70;99.90;;;;;;5051364;28;20048;-70
2022/05/20 01:00:20;;;;;;;0.10;0.10;;;13.70;99.90;;;;;;5052350;28;20033;-69
2022/05/20 01:02:50;;;;;;;0.98;0.30;;;13.70;99.90;;;;;;5049602;28;20424;-69
2022/05/20 01:05:38;;;;;;;0.30;0.20;;;13.70;99.90;;;;;;5049514;28;20100;-70
2022/05/20 01:08:06;;;;;;;1.15;0.40;;;13.60;99.90;;;;;;5051553;28;20025;-69
2022/05/20 01:10:32;;;;;;;0.70;0.30;;;13.70;99.90;;;;;;5050081;28;20025;-69
2022/05/20 01:12:58;;;;;;;0.63;0.20;;;13.70;99.90;;;;;;5052122;28;20318;-69
2022/05/20 01:15:24;;;;;;;0.70;0.25;;;13.70;99.90;;;;;;5050175;28;20048;-69
2022/05/20 01:17:52;;;;;;;0.75;0.30;;;13.70;99.90;;;;;;5050964;28;20032;-69
2022/05/20 01:20:23;;;;;;;0.43;0.20;;;13.70;99.90;;;;;;5051223;28;20029;-69
2022/05/20 01:23:09;;;;;;;0.20;0.20;;;13.60;99.90;;;;;;5050213;28;20057;-69
2022/05/20 01:25:39;;;;;;;0.35;0.20;;;13.60;99.90;;;;;;5054946;28;20778;-69
2022/05/20 01:28:05;;;;;;;0.77;0.30;;;13.70;99.90;;;;;;5050472;28;20039;-70
2022/05/20 01:30:31;;;;;;;0.40;0.20;;;13.60;99.90;;;;;;5050805;28;20033;-70
2022/05/20 01:33:03;;;;;;;0.80;0.30;;;13.60;99.90;;;;;;5048220;28;20092;-68
2022/05/20 01:35:39;;;;;;;;;;;13.60;99.90;;;;;;5051102;28;20039;-68
2022/05/20 01:38:06;;;;;;;0.43;0.20;;;13.60;99.90;;;;;;5046429;28;19916;-68
2022/05/20 01:41:03;;;;;;;0.63;0.30;;;13.60;99.90;;;;;;5051502;28;20021;-68
2022/05/20 01:43:55;;;;;;;0.68;0.30;;;13.60;99.90;;;;;;5026593;28;20526;-67
2022/05/20 01:46:38;;;;;;;0.40;0.20;;;13.60;99.90;;;;;;5052399;28;20111;-68
2022/05/20 01:49:39;;;;;;;0.25;0.20;;;13.60;99.90;;;;;;5048026;28;20017;-68
2022/05/20 01:52:04;;;;;;;0.55;0.20;;;13.60;99.90;;;;;;5057863;28;20021;-68
2022/05/20 01:54:53;;;;;;;0.47;0.20;;;13.50;99.90;;;;;;5059096;28;20034;-68
2022/05/20 01:57:41;;;;;;;0.40;0.20;;;13.50;99.90;;;;;;5051296;28;20043;-68
2022/05/20 02:00:20;;;;;;;0.55;0.20;;;13.50;99.90;;;;;;5054440;28;20075;-68
2022/05/20 02:03:11;;;;;;;0.45;0.20;;;13.50;99.90;;;;;;5049046;28;20040;-67
2022/05/20 02:06:07;;;;;;;1.67;0.80;;;13.50;99.90;;;;;;5050213;28;20410;-67
2022/05/20 02:08:35;;;;;;;0.38;0.20;;;13.50;99.90;;;;;;5048654;28;20047;-67
2022/05/20 02:11:13;;;;;;;0.10;0.10;;;13.50;99.90;;;;;;5045827;28;20018;-67
2022/05/20 02:13:43;;;;;;;0.10;0.10;;;13.50;99.90;;;;;;5057860;28;20408;-68
2022/05/20 02:16:14;;;;;;;0.28;0.20;;;13.50;99.90;;;;;;5052157;28;20558;-68
2022/05/20 02:19:02;;;;;;;0.20;0.20;;;13.50;99.90;;;;;;5050448;28;20043;-68
2022/05/20 02:21:31;;;;;;;0.20;0.20;;;13.50;99.90;;;;;;5050113;28;20013;-68
2022/05/20 02:24:01;;;;;;;0.30;0.20;;;13.40;99.90;;;;;;5083990;28;20104;-67
2022/05/20 02:26:30;;;;;;;0.25;0.20;;;13.40;99.90;;;;;;5051383;28;20029;-68
2022/05/20 02:29:02;;;;;;;0.20;0.20;;;13.50;99.90;;;;;;5049000;28;20040;-67
2022/05/20 02:31:37;;;;;;;0.45;0.20;;;13.50;99.90;;;;;;5048471;28;20385;-68
2022/05/20 02:34:03;;;;;;;1.92;0.93;;;13.40;99.90;;;;;;5053184;28;20049;-68
2022/05/20 02:36:34;;;;;;;0.77;0.30;;;13.40;99.90;;;;;;5052871;28;20029;-67
2022/05/20 02:39:02;;;;;;;0.20;0.20;;;13.30;99.90;;;;;;5048597;28;20088;-67
2022/05/20 02:41:28;;;;;;;0.43;0.20;;;13.30;99.90;;;;;;5051051;28;20052;-68
2022/05/20 02:43:54;;;;;;;0.20;0.20;;;13.40;99.90;;;;;;5047910;28;20037;-67
2022/05/20 02:46:20;;;;;;;0.47;0.20;;;13.30;99.90;;;;;;5050929;28;20397;-68
2022/05/20 02:48:45;;;;;;;0.70;0.40;;;13.30;99.90;;;;;;5050614;28;20033;-67
2022/05/20 02:51:11;;;;;;;2.28;0.50;;;13.30;99.90;;;;;;5054032;28;20036;-68
2022/05/20 02:53:37;;;;;;;0.60;0.30;;;13.30;99.90;;;;;;5047425;28;20053;-68
2022/05/20 02:56:03;;;;;;;0.30;0.20;;;13.30;99.90;;;;;;5052130;28;20025;-68
2022/05/20 03:04:12;;;;;;;0.77;0.40;;;13.30;99.90;;;;;;5048216;28;20615;-67
2022/05/20 03:06:49;;;;;;;0.28;0.20;;;13.30;99.90;;;;;;5050972;28;20049;-68
2022/05/20 03:09:20;;;;;;;0.20;0.20;;;13.30;99.90;;;;;;5054729;28;20025;-67
2022/05/20 03:11:46;;;;;;;0.60;0.30;;;13.30;99.90;;;;;;5054624;28;20053;-67
2022/05/20 03:14:13;;;;;;;0.32;0.20;;;13.30;99.90;;;;;;5054353;28;20033;-68
2022/05/20 03:16:40;;;;;;;0.45;0.20;;;13.30;99.90;;;;;;5054857;28;20029;-67
2022/05/20 03:19:07;;;;;;;0.90;0.50;;;13.30;99.90;;;;;;5051697;28;20035;-70
2022/05/20 03:21:34;;;;;;;0.57;0.25;;;13.30;99.90;;;;;;5053734;28;20040;-68
2022/05/20 03:24:00;;;;;;;0.30;0.20;;;13.30;99.90;;;;;;5056162;28;20063;-67
2022/05/20 03:26:29;;;;;;;0.55;0.20;;;13.30;99.90;;;;;;5046971;28;20033;-69
2022/05/20 03:28:59;;;;;;;0.63;0.22;;;13.30;99.90;;;;;;5086089;28;20467;-67
2022/05/20 03:31:25;;;;;;;0.52;0.20;;;13.30;99.90;;;;;;5053264;28;20091;-68
2022/05/20 03:33:51;;;;;;;0.30;0.20;;;13.30;99.90;;;;;;5054350;28;20033;-68
2022/05/20 03:36:17;;;;;;;0.70;0.30;;;13.30;99.90;;;;;;5053955;28;20066;-68
2022/05/20 03:38:43;;;;;;;0.50;0.20;;;13.30;99.90;;;;;;5053710;28;20031;-68
2022/05/20 03:41:10;;;;;;;0.50;0.20;;;13.30;99.90;;;;;;5052878;28;20048;-69
2022/05/20 03:43:36;;;;;;;0.25;0.20;;;13.30;99.90;;;;;;5053062;28;20028;-68
2022/05/20 03:46:02;;;;;;;0.28;0.20;;;13.30;99.90;;;;;;5054005;28;20029;-68
2022/05/20 03:48:29;;;;;;;0.35;0.28;;;13.30;99.90;;;;;;5049676;28;20067;-68
2022/05/20 03:50:54;;;;;;;0.70;0.30;;;13.20;99.90;;;;;;5052955;28;20033;-68
2022/05/20 03:53:20;;;;;;;0.38;0.20;;;13.20;99.90;;;;;;5051688;28;20042;-69
2022/05/20 03:55:46;;;;;;;0.32;0.20;;;13.10;99.90;;;;;;5052075;28;20097;-68
2022/05/20 03:58:12;;;;;;;0.80;0.30;;;13.00;99.90;;;;;;5053057;28;20041;-68
2022/05/20 04:03:23;;;;;;;0.38;0.20;;;12.90;99.90;;;;;;5051806;28;20048;-68
2022/05/20 04:05:49;;;;;;;0.65;0.40;;;12.80;99.90;;;;;;5067025;28;20127;-68
2022/05/20 04:08:16;;;;;;;0.60;0.30;;;12.90;99.90;;;;;;5054457;28;20113;-68
2022/05/20 04:10:41;;;;;;;0.28;0.20;;;12.90;99.90;;;;;;5065920;28;20025;-68
2022/05/20 04:13:07;;;;;;;0.60;0.30;;;12.90;99.90;;;;;;5052413;28;20056;-69
2022/05/20 04:15:33;;;;;;;0.82;0.30;;;12.90;99.90;;;;;;5049798;28;20094;-69
2022/05/20 04:17:59;;;;;;;0.73;0.30;;;12.90;99.90;;;;;;5053368;28;20044;-68
2022/05/20 04:20:26;;;;;;;0.28;0.20;;;12.90;99.90;;;;;;5052638;28;20056;-68
2022/05/20 04:22:52;;;;;;;0.82;0.30;;;12.90;99.90;;;;;;5051934;28;20096;-68
2022/05/20 04:25:18;;;;;;;0.45;0.20;;;12.90;99.90;;;;;;5051408;28;20079;-68
2022/05/20 04:27:43;;;;;;;0.50;0.20;;;12.90;99.90;;;;;;5049100;28;20083;-68
2022/05/20 04:30:10;;;;;;;0.45;0.20;;;12.80;99.90;;;;;;5051235;28;20048;-68
2022/05/20 04:32:35;;;;;;;0.77;0.30;;;12.80;99.90;;;;;;5049518;28;20135;-69
2022/05/20 04:35:01;;;;;;;0.20;0.20;;;12.80;99.90;;;;;;5049448;28;20072;-68
2022/05/20 04:37:27;;;;;;;0.75;0.30;;;12.70;99.90;;;;;;5048175;28;20031;-68
2022/05/20 04:39:53;;;;;;;0.28;0.20;;;12.70;99.90;;;;;;5052632;28;20115;-68
2022/05/20 04:47:49;;;;;;;0.20;0.20;;;12.60;99.90;;;;;;5047215;28;21062;-69
2022/05/20 04:50:14;;;;;;;0.47;0.28;;;12.60;99.90;;;;;;5048726;28;20021;-68
2022/05/20 04:52:40;;;;;;;0.35;0.20;;;12.60;99.90;;;;;;5053273;28;20093;-68
2022/05/20 04:55:07;;;;;;;0.20;0.20;;;12.50;99.90;;;;;;5050393;28;20038;-69
2022/05/20 04:57:36;;;;;;;0.82;0.30;;;12.50;99.90;;;;;;5043041;28;20030;-69
2022/05/20 05:00:07;;;;;;;1.05;0.57;;;12.60;99.90;;;;;;5055620;28;20020;-69
2022/05/20 05:02:34;;;;;;;0.57;0.28;;;12.60;99.90;;;;;;5054117;28;20029;-69
2022/05/20 05:05:00;;;;;;;0.57;0.30;;;12.60;99.90;;;;;;5047559;28;20055;-69
2022/05/20 05:07:26;;;;;;;0.60;0.25;;;12.60;99.90;;;;;;5065896;28;20757;-69
2022/05/20 05:09:53;;;;;;;0.40;0.20;;;12.70;99.90;;;;;;5050638;28;20033;-69
2022/05/20 05:12:18;;;;;;;0.57;0.30;;;12.70;99.90;;;;;;5053506;28;20041;-69
2022/05/20 05:14:47;;;;;;;0.57;0.28;;;12.80;99.90;;;;;;5063019;28;20053;-69
2022/05/20 05:17:15;;;;;;;0.20;0.20;;;12.80;99.90;;;;;;5050970;28;20111;-69
2022/05/20 05:19:43;;;;;;;0.70;0.45;;;12.90;99.90;;;;;;5076042;28;20034;-69
2022/05/20 05:22:09;;;;;;;0.30;0.20;;;12.90;99.90;;;;;;5060321;28;20021;-69
2022/05/20 05:24:36;;;;;;;0.95;0.32;;;13.00;99.90;;;;;;5051748;28;20052;-70
2022/05/20 05:27:02;;;;;;;0.38;0.20;;;13.10;99.90;;;;;;5050690;28;20032;-69
2022/05/20 05:29:28;;;;;;;0.77;0.30;;;13.20;99.90;;;;;;5047598;28;20105;-69
2022/05/20 05:31:54;;;;;;;0.90;0.30;;;13.20;99.90;;;;;;5048804;28;20032;-69
2022/05/20 05:34:19;;;;;;;0.52;0.25;;;13.40;99.90;;;;;;5052051;28;20029;-69
2022/05/20 05:36:45;;;;;;;0.30;0.20;;;13.50;99.90;;;;;;5051803;28;20029;-69
2022/05/20 05:39:11;;;;;;;0.20;0.20;;;13.60;99.90;;;;;;5051020;28;20112;-69
2022/05/20 05:41:37;;;;;;;0.50;0.20;;;13.70;99.90;;;;;;5049059;28;20056;-70
2022/05/20 05:44:03;;;;;;;0.38;0.20;;;13.90;99.90;;;;;;5064894;28;20040;-69
2022/05/20 05:46:30;;;;;;;0.43;0.20;;;14.10;99.90;;;;;;5050006;28;20083;-69
2022/05/20 05:48:58;;;;;;;0.73;0.28;;;14.10;99.90;;;;;;5053575;28;20033;-69
2022/05/20 05:51:25;;;;;;;0.40;0.20;;;14.40;99.90;;;;;;5053789;28;20037;-68
2022/05/20 05:53:52;;;;;;;0.38;0.20;;;14.80;99.90;;;;;;5082607;28;20469;-69
2022/05/20 05:56:17;;;;;;;0.55;0.20;;;15.00;99.90;;;;;;5049315;28;20024;-69
2022/05/20 05:58:43;;;;;;;0.52;0.20;;;15.30;99.90;;;;;;5049310;28;20098;-69
2022/05/20 06:01:09;;;;;;;0.43;0.20;;;15.70;99.90;;;;;;5047382;28;20098;-69
2022/05/20 06:03:35;;;;;;;0.68;0.20;;;16.20;99.90;;;;;;5049189;28;20424;-69
2022/05/20 06:06:01;;;;;;;0.63;0.20;;;16.20;99.90;;;;;;5057025;28;20053;-69
2022/05/20 06:08:27;;;;;;;0.77;0.20;;;16.90;99.90;;;;;;5059153;28;20048;-69
2022/05/20 06:10:52;;;;;;;0.80;0.20;;;17.20;99.90;;;;;;5059608;28;20029;-68
2022/05/20 06:13:26;;;;;;;0.20;0.10;;;17.10;99.90;;;;;;5060860;28;20125;-69
2022/05/20 06:15:55;;;;;;;0.32;0.10;;;17.10;99.90;;;;;;5057307;28;20025;-67
2022/05/20 06:18:21;;;;;;;0.17;0.10;;;16.70;99.90;;;;;;5061147;28;20100;-69
2022/05/20 06:20:48;;;;;;;1.05;0.52;;;16.80;99.90;;;;;;5064128;28;21403;-68
2022/05/20 06:23:14;;;;;;;0.28;0.10;;;16.70;99.90;;;;;;5078169;28;20376;-67
2022/05/20 06:25:41;;;;;;;0.52;0.20;;;16.70;99.90;;;;;;5054187;28;20036;-68
2022/05/20 06:28:13;;;;;;;0.10;0.10;;;17.10;99.90;;;;;;5055515;28;20120;-68
2022/05/20 06:30:39;;;;;;;0.38;0.10;;;17.30;99.90;;;;;;5049517;28;20025;-66
2022/05/20 06:33:05;;;;;;;0.28;0.20;;;17.50;99.90;;;;;;5055435;28;20029;-78
2022/05/20 06:41:02;;;;;;;0.47;0.10;;;18.90;99.90;;;;;;5062072;28;20542;-78
2022/05/20 06:43:28;;;;;;;0.22;0.10;;;18.90;99.90;;;;;;5057915;28;20037;-78
2022/05/20 06:45:58;;;;;;;0.38;0.10;;;18.00;99.90;;;;;;5060723;28;20123;-77
2022/05/20 06:48:35;;;;;;;0.08;0.08;;;18.30;99.90;;;;;;5058982;28;20021;-76
2022/05/20 06:51:06;;;;;;;0.17;0.10;;;18.60;99.90;;;;;;5058529;28;20036;-75
2022/05/20 06:53:32;;;;;;;0.22;0.10;;;18.50;99.90;;;;;;5056288;28;20064;-77
2022/05/20 06:55:58;;;;;;;0.10;0.10;;;18.90;99.90;;;;;;5054087;28;20025;-77
2022/05/20 06:58:24;;;;;;;0.43;0.20;;;19.60;99.90;;;;;;5052532;28;20044;-77
2022/05/20 07:00:49;;;;;;;0.20;0.10;;;19.60;99.90;;;;;;5057504;28;20041;-76
2022/05/20 07:03:19;;;;;;;0.10;0.10;;;19.80;99.90;;;;;;5056966;28;20052;-76
2022/05/20 07:05:45;;;;;;;0.28;0.10;;;19.80;99.90;;;;;;5054777;28;20370;-79
2022/05/20 07:08:11;;;;;;;0.15;0.10;;;20.00;99.90;;;;;;5061418;28;20045;-79
2022/05/20 07:10:37;;;;;;;0.47;0.20;;;18.60;99.90;;;;;;5058046;28;20041;-77
2022/05/20 07:13:03;;;;;;;0.10;0.10;;;18.60;99.90;;;;;;5061470;28;20072;-78
2022/05/20 07:15:29;;;;;;;0.10;0.10;;;18.80;99.90;;;;;;5059443;28;20417;-77
2022/05/20 07:17:55;;;;;;;0.38;0.17;;;19.50;99.90;;;;;;5061675;28;20032;-74
2022/05/20 07:20:20;;;;;;;0.17;0.10;;;19.50;99.90;;;;;;5058661;28;20090;-74
2022/05/20 07:22:46;;;;;;;0.25;0.10;;;19.60;99.90;;;;;;5057337;28;20439;-75
2022/05/20 07:25:13;;;;;;;0.10;0.10;;;19.20;99.90;;;;;;5056604;28;20119;-74
2022/05/20 07:27:39;;;;;;;0.15;0.10;;;19.10;99.90;;;;;;5062321;28;20491;-78
2022/05/20 07:30:06;;;;;;;0.28;0.10;;;19.60;99.90;;;;;;5058457;28;20048;-75
2022/05/20 07:32:32;;;;;;;0.52;0.20;;;19.70;99.90;;;;;;5057098;28;20028;-75
2022/05/20 07:34:58;;;;;;;0.28;0.10;;;19.90;99.90;;;;;;5058598;28;20139;-75
2022/05/20 07:37:23;;;;;;;0.52;0.30;;;19.80;99.90;;;;;;5063297;28;20028;-80
2022/05/20 07:39:49;;;;;;;0.28;0.10;;;20.60;99.90;;;;;;5037907;28;20055;-77
2022/05/20 07:42:15;;;;;;;0.38;0.30;;;20.70;99.90;;;;;;5056100;28;20143;-77
2022/05/20 07:44:41;;;;;;;0.13;0.10;;;20.80;99.90;;;;;;5059230;28;20029;-76
2022/05/20 07:47:08;;;;;;;0.10;0.10;;;20.90;99.90;;;;;;5060418;28;20021;-73
2022/05/20 07:49:34;;;;;;;0.10;0.10;;;21.20;99.90;;;;;;5054760;28;20025;-75
2022/05/20 07:52:02;;;;;;;0.38;0.10;;;20.50;99.90;;;;;;5062113;28;20079;-77
2022/05/20 07:54:30;;;;;;;0.10;0.10;;;20.80;99.90;;;;;;5067999;28;20390;-77
2022/05/20 07:57:01;;;;;;;0.10;0.10;;;21.40;99.90;;;;;;5042894;28;20029;-77
2022/05/20 07:59:56;;;;;;;0.17;0.10;;;21.80;99.90;;;;;;5060475;28;20021;-77
2022/05/20 08:02:25;;;;;;;0.22;0.15;;;21.90;99.90;;;;;;5044134;28;20067;-77
2022/05/20 08:04:55;;;;;;;0.10;0.03;;;22.20;99.90;;;;;;5093606;28;20029;-77
2022/05/20 08:07:25;;;;;;;0.45;0.35;;;22.00;99.90;;;;;;5068921;28;20072;-77
2022/05/20 08:09:51;;;;;;;0.10;0.10;;;22.50;99.90;;;;;;5059847;28;20334;-76
2022/05/20 08:12:16;;;;;;;0.17;0.10;;;22.90;99.90;;;;;;5062051;28;20025;-77
2022/05/20 08:14:42;;;;;;;0.40;0.10;;;22.20;97.60;;;;;;5044310;28;20043;-78
2022/05/20 08:17:08;;;;;;;0.30;0.20;;;21.70;98.20;;;;;;5061712;28;20052;-77
2022/05/20 08:19:34;;;;;;;0.45;0.30;;;21.30;99.90;;;;;;5056958;28;20036;-78
2022/05/20 08:22:00;;;;;;;0.15;0.10;;;21.00;99.90;;;;;;5060284;28;20132;-79
2022/05/20 08:24:26;;;;;;;0.03;0.03;;;21.00;99.90;;;;;;5060694;28;20017;-78
2022/05/20 08:26:52;;;;;;;0.17;0.10;;;21.00;99.90;;;;;;5094211;28;20078;-77
2022/05/20 08:29:19;;;;;;;0.20;0.10;;;20.90;99.90;;;;;;5061329;28;20044;-77
2022/05/20 08:31:45;;;;;;;0.10;0.10;;;20.70;99.90;;;;;;5056951;28;20052;-77
2022/05/20 08:34:11;;;;;;;0.13;0.10;;;20.30;99.90;;;;;;5077237;28;20041;-77
2022/05/20 08:36:38;;;;;;;0.10;0.10;;;20.70;99.90;;;;;;5041650;28;20093;-77
2022/05/20 08:39:05;;;;;;;0.10;0.10;;;20.30;99.90;;;;;;5060116;28;20029;-77
2022/05/20 08:41:46;;;;;;;0.35;0.25;;;21.20;99.90;;;;;;5096811;28;20017;-77
2022/05/20 08:44:18;;;;;;;0.10;0.10;;;21.70;99.90;;;;;;5063266;28;20096;-76
2022/05/20 08:46:44;;;;;;;;;;;22.30;99.90;;;;;;5046068;28;20026;-77
2022/05/20 08:49:13;;;;;;;0.82;0.30;;;23.30;96.70;;;;;;5044846;28;19908;-77
2022/05/20 08:51:41;;;;;;;0.10;0.10;;;23.10;83.90;;;;;;5061890;28;20128;-78
2022/05/20 08:54:09;;;;;;;0.10;0.10;;;23.10;89.10;;;;;;5075901;28;20048;-77
2022/05/20 08:56:37;;;;;;;0.10;0.10;;;22.90;75.60;;;;;;5057343;28;20060;-77
2022/05/20 08:59:07;;;;;;;0.10;0.10;;;24.20;89.40;;;;;;5091847;28;20088;-78
2022/05/20 09:01:39;;;;;;;0.40;0.17;;;23.80;64.80;;;;;;5090232;28;20063;-78
2022/05/20 09:04:06;;;;;;;1.23;1.05;;;23.60;70.40;;;;;;5092332;28;20401;-78
2022/05/20 09:06:58;;;;;;;0.17;0.10;;;23.60;70.30;;;;;;5058560;28;20076;-78
2022/05/20 09:09:30;;;;;;;0.52;0.22;;;23.40;69.10;;;;;;5056754;28;20024;-77
2022/05/20 09:11:57;;;;;;;0.10;0.10;;;24.30;81.00;;;;;;5059749;28;20013;-77
2022/05/20 09:17:23;;;;;;;0.10;0.10;;;24.80;78.40;;;;;;5062797;28;20043;-77
2022/05/20 09:20:01;;;;;;;0.10;0.10;;;24.60;67.60;;;;;;5092269;28;20033;-77
2022/05/20 09:22:37;;;;;;;0.10;0.10;;;24.80;68.90;;;;;;5055317;28;20031;-78
2022/05/20 09:25:20;;;;;;;0.10;0.10;;;24.80;69.00;;;;;;5071762;28;20052;-78
2022/05/20 09:27:46;;;;;;;0.10;0.10;;;24.70;61.10;;;;;;5059360;28;20140;-78
2022/05/20 09:30:15;;;;;;;0.10;0.10;;;24.80;58.60;;;;;;5060260;28;20036;-78
2022/05/20 09:32:43;;;;;;;0.10;0.10;;;23.90;56.20;;;;;;5093780;28;20025;-78
2022/05/20 09:35:15;;;;;;;0.08;0.08;;;23.80;64.10;;;;;;5088985;28;20083;-77
2022/05/20 09:37:41;;;;;;;0.20;0.10;;;24.00;65.10;;;;;;5058521;28;20123;-78
2022/05/20 09:40:31;;;;;;;0.10;0.10;;;24.10;63.70;;;;;;5057942;28;20138;-78
2022/05/20 09:43:25;;;;;;;0.20;0.10;;;24.30;67.00;;;;;;5068794;28;20029;-78
2022/05/20 09:45:52;;;;;;;0.13;0.13;;;24.20;79.40;;;;;;5060573;28;20033;-78
2022/05/20 09:48:36;;;;;;;0.10;0.10;;;24.10;71.60;;;;;;5058677;28;20027;-78
2022/05/20 09:51:14;;;;;;;0.20;0.20;;;24.10;73.70;;;;;;5062308;28;20021;-78
2022/05/20 09:53:57;;;;;;;0.10;0.10;;;23.50;76.40;;;;;;5092781;28;20055;-78
2022/05/20 09:56:24;;;;;;;0.17;0.05;;;23.70;75.70;;;;;;5068057;28;20025;-79
2022/05/20 09:59:24;;;;;;;0.10;0.10;;;23.60;74.00;;;;;;5078952;28;20080;-78
2022/05/20 10:02:12;;;;;;;0.00;0.00;;;23.40;65.20;;;;;;5052872;28;20056;-79
2022/05/20 10:05:14;;;;;;;0.10;0.10;;;23.20;77.20;;;;;;5059323;28;20017;-78
2022/05/20 10:08:06;;;;;;;0.10;0.10;;;22.70;62.90;;;;;;5054206;28;20048;-78
2022/05/20 10:10:51;;;;;;;0.55;0.40;;;22.30;63.80;;;;;;5058041;28;20046;-77
2022/05/20 10:13:35;;;;;;;0.10;0.10;;;22.40;60.80;;;;;;5060875;28;20124;-78
2022/05/20 10:16:12;;;;;;;0.38;0.20;;;22.90;64.70;;;;;;5056008;28;20040;-78
2022/05/20 10:19:15;;;;;;;0.32;0.30;;;22.70;59.40;;;;;;5091392;28;20041;-78
2022/05/20 10:22:17;;;;;;;0.08;0.08;;;23.10;62.00;;;;;;5056447;28;20045;-78
2022/05/20 10:25:01;;;;;;;0.20;0.10;;;23.10;65.20;;;;;;5084810;28;20047;-75
2022/05/20 10:27:40;;;;;;;0.30;0.13;;;23.60;66.40;;;;;;5056897;28;20043;-77
2022/05/20 10:33:06;;;;;;;0.10;0.10;;;23.40;85.10;;;;;;5055011;28;20147;-76
2022/05/20 10:35:53;;;;;;;0.10;0.10;;;23.10;59.80;;;;;;5056942;28;20607;-74
2022/05/20 10:38:25;;;;;;;0.00;0.00;;;23.40;77.10;;;;;;5055309;28;20033;-74
2022/05/20 10:41:06;;;;;;;0.10;0.10;;;24.00;75.50;;;;;;5068200;28;20029;-75
2022/05/20 10:50:26;;;;;;;0.03;0.03;;;24.20;58.80;;;;;;5051310;28;20032;-76
2022/05/20 10:53:32;;;;;;;0.40;0.10;;;24.60;65.10;;;;;;5066174;28;20077;-76
2022/05/20 10:56:09;;;;;;;0.10;0.10;;;24.80;70.50;;;;;;5069830;28;20063;-75
2022/05/20 10:58:43;;;;;;;0.08;0.08;;;25.00;63.40;;;;;;5059881;28;20028;-76
2022/05/20 11:01:26;;;;;;;0.10;0.10;;;24.40;60.20;;;;;;5051356;28;20013;-74
2022/05/20 11:04:14;;;;;;;0.17;0.10;;;25.10;66.80;;;;;;5050534;28;20056;-75
2022/05/20 11:07:28;;;;;;;0.10;0.10;;;25.30;57.10;;;;;;5067903;28;20052;-75
2022/05/20 11:10:12;;;;;;;0.00;0.00;;;26.10;57.50;;;;;;5035603;28;20032;-76
2022/05/20 11:12:44;;;;;;;0.25;0.25;;;27.20;62.90;;;;;;5056478;28;20088;-75
2022/05/20 11:15:09;;;;;;;0.00;0.00;;;26.80;49.30;;;;;;5064104;28;20033;-75
2022/05/20 11:17:56;;;;;;;0.00;0.00;;;27.10;50.50;;;;;;5067432;28;20025;-75
2022/05/20 11:20:52;;;;;;;0.08;0.00;;;26.60;49.20;;;;;;5067686;28;20024;-76
2022/05/20 11:23:45;;;;;;;0.00;0.00;;;26.80;47.10;;;;;;5057003;28;20355;-74
2022/05/20 11:26:30;;;;;;;0.10;0.10;;;27.10;45.00;;;;;;5053732;28;20067;-75
2022/05/20 11:29:12;;;;;;;0.05;0.05;;;27.30;45.20;;;;;;5054293;28;20032;-75
2022/05/20 11:31:57;;;;;;;0.00;0.00;;;27.70;46.90;;;;;;5061208;28;20028;-75
2022/05/20 11:34:54;;;;;;;0.00;0.00;;;27.20;46.10;;;;;;5054890;28;20033;-74
2022/05/20 11:37:37;;;;;;;0.30;0.10;;;28.00;49.50;;;;;;5059136;28;20021;-76
2022/05/20 11:40:06;;;;;;;0.10;0.10;;;28.30;46.20;;;;;;5073256;28;20613;-77
2022/05/20 11:42:44;;;;;;;0.20;0.10;;;27.70;46.60;;;;;;5062529;28;20032;-76
2022/05/20 11:45:15;;;;;;;0.10;0.10;;;27.30;47.50;;;;;;5061363;28;20106;-77
2022/05/20 11:48:04;;;;;;;0.10;0.03;;;26.80;47.60;;;;;;5057969;28;20265;-79
2022/05/20 11:51:07;;;;;;;0.00;0.00;;;25.70;47.60;;;;;;5057229;28;20025;-77
2022/05/20 11:53:45;;;;;;;0.00;0.00;;;25.20;50.00;;;;;;5037293;28;20056;-77
2022/05/20 11:56:43;;;;;;;0.00;0.00;;;24.50;50.60;;;;;;5061935;28;20029;-77
2022/05/20 11:59:18;;;;;;;0.00;0.00;;;24.70;53.40;;;;;;5054573;28;20041;-75
2022/05/20 12:01:51;;;;;;;0.10;0.08;;;24.70;51.40;;;;;;5061089;28;20084;-75
2022/05/20 12:04:20;;;;;;;0.00;0.00;;;24.40;50.10;;;;;;5060536;28;20047;-75
2022/05/20 12:06:51;;;;;;;0.00;0.00;;;24.00;50.00;;;;;;5061275;28;20171;-76
2022/05/20 12:09:35;;;;;;;0.10;0.10;;;24.30;52.90;;;;;;5060606;28;20028;-76
2022/05/20 12:12:28;;;;;;;0.20;0.10;;;23.90;50.10;;;;;;5058334;28;20418;-77
2022/05/20 12:14:54;;;;;;;0.03;0.03;;;23.60;50.00;;;;;;5040765;28;20071;-76
2022/05/20 12:17:30;;;;;;;0.70;0.20;;;23.30;51.10;;;;;;5052573;28;20176;-76
2022/05/20 12:26:07;;;;;;;0.00;0.00;;;23.50;49.40;;;;;;5052455;28;20033;-76
2022/05/20 12:28:36;;;;;;;0.10;0.10;;;23.40;47.80;;;;;;5060318;28;20052;-76
2022/05/20 12:31:20;;;;;;;0.17;0.10;;;23.30;48.40;;;;;;5061409;28;20036;-76
2022/05/20 12:34:00;;;;;;;0.10;0.10;;;22.90;49.50;;;;;;5061689;28;20037;-76
2022/05/20 12:36:28;;;;;;;0.40;0.20;;;23.20;55.30;;;;;;5093927;28;20516;-76
2022/05/20 12:39:06;;;;;;;0.10;0.10;;;22.60;55.10;;;;;;5051969;28;20031;-75
2022/05/20 12:41:43;;;;;;;0.00;0.00;;;22.70;53.70;;;;;;5087640;28;20102;-75
2022/05/20 12:44:17;;;;;;;0.10;0.10;;;22.60;56.10;;;;;;5073494;28;20357;-74
2022/05/20 12:47:05;;;;;;;0.10;0.10;;;22.80;60.30;;;;;;5052167;28;20059;-77
2022/05/20 12:49:38;;;;;;;0.10;0.10;;;22.90;54.50;;;;;;5057776;28;20032;-75
2022/05/20 12:52:18;;;;;;;0.10;0.10;;;22.80;59.00;;;;;;5056764;28;20044;-76
2022/05/20 12:54:52;;;;;;;0.30;0.10;;;22.60;57.10;;;;;;5054292;28;20493;-75
2022/05/20 12:57:21;;;;;;;0.10;0.10;;;22.90;60.70;;;;;;5053315;28;20050;-76
2022/05/20 12:59:54;;;;;;;0.28;0.20;;;22.60;59.60;;;;;;5063476;28;20039;-74
2022/05/20 13:02:21;;;;;;;0.10;0.10;;;22.50;60.50;;;;;;5060352;28;20110;-78
2022/05/20 13:05:04;;;;;;;0.47;0.30;;;22.00;64.00;;;;;;5040037;28;20047;-79
2022/05/20 13:07:33;;;;;;;0.10;0.10;;;21.90;69.50;;;;;;5075801;28;20119;-79
2022/05/20 13:10:00;;;;;;;0.32;0.20;;;21.60;75.90;;;;;;5047994;28;20021;-79
2022/05/20 13:12:25;;;;;;;0.80;0.63;;;21.60;77.80;;;;;;5041476;28;20027;-79
2022/05/20 13:14:59;;;;;;;0.88;0.20;;;21.40;82.50;;;;;;5058184;28;20080;-79
2022/05/20 13:17:25;;;;;;;0.65;0.38;;;21.20;83.80;;;;;;5058001;28;20028;-80
2022/05/20 13:19:55;;;;;;;0.32;0.32;;;21.00;89.50;;;;;;5060319;28;20044;-79
2022/05/20 13:22:26;;;;;;;0.10;0.10;;;21.00;91.70;;;;;;5082625;28;20025;-74
2022/05/20 13:25:05;;;;;;;;;;;20.70;95.10;;;;;;5082726;28;20033;-75
2022/05/20 13:27:31;;;;;;;0.73;0.40;;;20.60;98.40;;;;;;5083101;28;19944;-76
2022/05/20 13:30:09;;;;;;;0.95;0.20;;;20.50;99.90;;;;;;5059043;28;20029;-75
2022/05/20 13:32:35;;;;;;;0.52;0.40;;;20.30;99.90;;;;;;5064212;28;20021;-76
2022/05/20 13:35:03;;;;;;;0.50;0.20;;;20.30;99.90;;;;;;5039121;28;20144;-76
2022/05/20 13:37:38;;;;;;;0.10;0.10;;;20.10;99.90;;;;;;5080321;28;20117;-74
2022/05/20 13:40:46;;;;;;;0.10;0.10;;;19.90;99.90;;;;;;5065578;28;20033;-74
2022/05/20 13:43:21;;;;;;;0.40;0.40;;;19.90;99.90;;;;;;4971098;28;20033;-76
2022/05/20 13:51:32;;;;;;;1.20;0.40;;;19.40;99.90;;;;;;5067727;28;20631;-75
2022/05/20 13:54:03;;;;;;;0.50;0.15;;;19.20;99.90;;;;;;5064454;28;20040;-75
2022/05/20 13:56:36;;;;;;;0.10;0.10;;;19.10;99.90;;;;;;5073524;28;20100;-75
2022/05/20 13:59:19;;;;;;;0.38;0.15;;;18.90;99.90;;;;;;5057146;28;20032;-76